Time;durP1;ratioP1;P1;durP2;ratioP2;P2;SDS_P1;SDS_P2;PMS_P1;PMS_P2;Temp;Humidity;BMP_temperature;BMP_pressure;BME280_temperature;BME280_humidity;BME280_pressure;Samples;Min_cycle;Max_cycle;Signal;HPM_P1;HPM_P2
2024/02/15 00:07:07;;;;;;;10.73;7.70;;;10.10;99.90;;;;;;4962490;28;20296;-81
2024/02/15 00:09:42;;;;;;;9.27;7.03;;;11.10;99.90;;;;;;4989282;28;20899;-81
2024/02/15 00:12:17;;;;;;;11.77;7.40;;;10.00;99.90;;;;;;5000745;28;20258;-81
2024/02/15 00:18:02;;;;;;;10.77;7.77;;;10.10;99.90;;;;;;5047696;28;20750;-80
2024/02/15 00:23:45;;;;;;;10.07;7.47;;;9.90;99.90;;;;;;5049880;28;20235;-81
2024/02/15 00:29:44;;;;;;;10.77;7.87;;;10.20;99.90;;;;;;5055530;28;20245;-81
2024/02/15 00:32:41;;;;;;;12.83;8.00;;;10.30;99.90;;;;;;5045313;28;20245;-81
2024/02/15 00:35:09;;;;;;;12.30;8.23;;;10.20;99.90;;;;;;5057437;28;20203;-81
2024/02/15 00:38:16;;;;;;;14.03;9.30;;;10.30;99.90;;;;;;5050774;28;20633;-82
2024/02/15 00:41:19;;;;;;;14.30;9.20;;;10.30;99.90;;;;;;5056034;28;20214;-83
2024/02/15 00:44:10;;;;;;;13.47;8.20;;;10.40;99.90;;;;;;5054689;28;20203;-81
2024/02/15 00:50:06;;;;;;;14.50;9.43;;;10.40;99.90;;;;;;5024536;28;20588;-81
2024/02/15 00:52:33;;;;;;;13.07;9.20;;;10.40;99.90;;;;;;5051004;28;20199;-82
2024/02/15 00:54:59;;;;;;;13.33;8.73;;;11.00;99.90;;;;;;5044710;28;20227;-81
2024/02/15 00:57:26;;;;;;;13.93;9.10;;;10.50;99.90;;;;;;5046351;28;20209;-81
2024/02/15 00:59:55;;;;;;;13.60;9.33;;;10.50;99.90;;;;;;5054095;28;20198;-82
2024/02/15 01:02:23;;;;;;;13.90;9.40;;;10.50;99.90;;;;;;5051583;28;20230;-82
2024/02/15 01:04:50;;;;;;;12.70;8.60;;;10.50;99.90;;;;;;5054607;28;20227;-82
2024/02/15 01:07:17;;;;;;;13.80;8.80;;;10.50;99.90;;;;;;5055487;28;20249;-82
2024/02/15 01:09:45;;;;;;;12.20;7.97;;;10.50;99.90;;;;;;5056815;28;20240;-82
2024/02/15 01:12:12;;;;;;;12.30;8.73;;;10.50;99.90;;;;;;5052601;28;20234;-82
2024/02/15 01:14:39;;;;;;;11.50;7.43;;;10.50;99.90;;;;;;5054068;28;20214;-82
2024/02/15 01:17:07;;;;;;;14.30;8.20;;;10.60;99.90;;;;;;5057004;28;20298;-82
2024/02/15 01:19:34;;;;;;;12.07;8.03;;;10.50;99.90;;;;;;5058552;28;20287;-81
2024/02/15 01:22:02;;;;;;;12.03;7.90;;;10.50;99.90;;;;;;5056997;28;20301;-82
2024/02/15 01:24:30;;;;;;;13.03;8.73;;;10.60;99.90;;;;;;5057250;28;20204;-82
2024/02/15 01:26:56;;;;;;;12.00;8.53;;;10.50;99.90;;;;;;5060733;28;20218;-82
2024/02/15 01:29:25;;;;;;;10.73;7.20;;;10.50;99.90;;;;;;5057259;28;20682;-82
2024/02/15 01:31:52;;;;;;;10.60;7.57;;;10.70;99.90;;;;;;5046493;28;20211;-82
2024/02/15 01:34:21;;;;;;;12.77;7.83;;;10.50;99.90;;;;;;5052305;28;20229;-82
2024/02/15 01:36:49;;;;;;;11.90;7.47;;;10.40;99.90;;;;;;5051201;28;20206;-83
2024/02/15 01:39:15;;;;;;;11.60;7.77;;;10.50;99.90;;;;;;5055609;28;20219;-82
2024/02/15 01:41:48;;;;;;;11.73;7.73;;;10.40;99.90;;;;;;5052372;28;20226;-82
2024/02/15 01:44:14;;;;;;;9.37;7.03;;;10.40;99.90;;;;;;5059372;28;20199;-82
2024/02/15 01:46:41;;;;;;;9.63;6.47;;;10.40;99.90;;;;;;5053285;28;20206;-82
2024/02/15 01:49:08;;;;;;;8.90;6.40;;;10.40;99.90;;;;;;5056794;28;20283;-82
2024/02/15 01:51:40;;;;;;;9.63;6.60;;;10.40;99.90;;;;;;5055124;28;20924;-82
2024/02/15 01:54:08;;;;;;;9.00;6.03;;;10.40;99.90;;;;;;5050900;28;20229;-81
2024/02/15 01:56:36;;;;;;;8.93;6.33;;;10.40;99.90;;;;;;5054119;28;20206;-81
2024/02/15 01:59:03;;;;;;;9.07;5.93;;;10.40;99.90;;;;;;5052609;28;20736;-81
2024/02/15 02:01:32;;;;;;;8.50;5.47;;;10.40;99.90;;;;;;5055351;28;20574;-81
2024/02/15 02:03:59;;;;;;;7.37;5.30;;;10.40;99.90;;;;;;5051464;28;20302;-81
2024/02/15 02:06:27;;;;;;;8.87;6.20;;;10.50;99.90;;;;;;5054389;28;20203;-81
2024/02/15 02:08:56;;;;;;;7.27;5.17;;;10.40;99.90;;;;;;5049595;28;20231;-82
2024/02/15 02:11:22;;;;;;;7.27;5.20;;;10.40;99.90;;;;;;5058227;28;20226;-81
2024/02/15 02:13:49;;;;;;;7.30;5.37;;;10.40;99.90;;;;;;5058439;28;20671;-81
2024/02/15 02:16:28;;;;;;;8.30;5.60;;;10.40;99.90;;;;;;5057176;28;20210;-81
2024/02/15 02:18:56;;;;;;;6.40;4.77;;;10.30;99.90;;;;;;5058081;28;20226;-82
2024/02/15 02:21:24;;;;;;;6.90;5.07;;;10.60;99.90;;;;;;5050438;28;20224;-82
2024/02/15 02:23:56;;;;;;;5.87;4.43;;;10.40;99.90;;;;;;5063303;28;20576;-83
2024/02/15 02:26:25;;;;;;;6.63;4.27;;;10.50;99.90;;;;;;5059909;28;20207;-83
2024/02/15 02:28:54;;;;;;;4.73;4.10;;;10.50;99.90;;;;;;5055855;28;20225;-82
2024/02/15 02:31:21;;;;;;;5.10;4.00;;;10.60;99.90;;;;;;5048213;28;20211;-82
2024/02/15 02:33:52;;;;;;;6.10;4.40;;;10.60;99.90;;;;;;5054530;28;20210;-82
2024/02/15 02:36:19;;;;;;;5.93;4.03;;;10.70;99.90;;;;;;5056113;28;20231;-82
2024/02/15 02:38:49;;;;;;;5.67;4.20;;;10.60;99.90;;;;;;5055709;28;20219;-82
2024/02/15 02:41:16;;;;;;;4.53;3.80;;;10.70;99.90;;;;;;5054454;28;20241;-83
2024/02/15 02:43:44;;;;;;;4.30;3.90;;;10.70;99.90;;;;;;5059968;28;20271;-82
2024/02/15 02:46:11;;;;;;;4.23;3.83;;;10.70;99.90;;;;;;5056532;28;20207;-82
2024/02/15 02:48:38;;;;;;;4.90;4.20;;;10.80;99.90;;;;;;5057390;28;20227;-83
2024/02/15 02:51:05;;;;;;;5.63;4.53;;;10.80;99.90;;;;;;5057307;28;20213;-82
2024/02/15 02:53:32;;;;;;;4.83;4.07;;;10.80;99.90;;;;;;5054055;28;20586;-82
2024/02/15 02:55:59;;;;;;;3.83;3.43;;;10.80;99.90;;;;;;5055140;28;20591;-82
2024/02/15 02:58:26;;;;;;;3.53;3.23;;;10.80;99.90;;;;;;5048120;28;20223;-82
2024/02/15 03:00:55;;;;;;;4.30;3.27;;;10.80;99.90;;;;;;5045739;28;20206;-82
2024/02/15 03:03:22;;;;;;;4.43;3.63;;;11.10;99.90;;;;;;5051362;28;20258;-82
2024/02/15 03:05:49;;;;;;;3.77;3.33;;;10.80;99.90;;;;;;5055010;28;20248;-82
2024/02/15 03:08:17;;;;;;;3.70;3.13;;;10.80;99.90;;;;;;5051611;28;20233;-82
2024/02/15 03:10:44;;;;;;;4.17;3.53;;;10.80;99.90;;;;;;5059255;28;20653;-82
2024/02/15 03:13:11;;;;;;;4.40;3.60;;;10.70;99.90;;;;;;5055252;28;20608;-82
2024/02/15 03:15:38;;;;;;;4.23;3.33;;;10.80;99.90;;;;;;5058278;28;20235;-82
2024/02/15 03:18:08;;;;;;;3.97;3.40;;;10.80;99.90;;;;;;5058318;28;20227;-82
2024/02/15 03:20:37;;;;;;;4.60;3.93;;;10.80;99.90;;;;;;5061898;28;20678;-82
2024/02/15 03:23:04;;;;;;;5.00;3.80;;;10.80;99.90;;;;;;5066051;28;20301;-82
2024/02/15 03:25:31;;;;;;;4.80;3.83;;;10.80;99.90;;;;;;5052760;28;20207;-83
2024/02/15 03:28:02;;;;;;;3.97;3.50;;;10.80;99.90;;;;;;5049512;28;20221;-82
2024/02/15 03:30:33;;;;;;;4.60;3.93;;;10.80;99.90;;;;;;5049975;28;20235;-82
2024/02/15 03:33:00;;;;;;;4.20;3.50;;;10.80;99.90;;;;;;5043097;28;20200;-83
2024/02/15 03:35:31;;;;;;;5.40;3.53;;;10.80;99.90;;;;;;5049999;28;20198;-83
2024/02/15 03:37:58;;;;;;;4.90;3.50;;;10.90;99.90;;;;;;5056318;28;20223;-82
2024/02/15 03:40:26;;;;;;;6.40;4.00;;;10.80;99.90;;;;;;5053895;28;20538;-82
2024/02/15 03:42:53;;;;;;;5.00;3.20;;;10.90;99.90;;;;;;5054024;28;20222;-82
2024/02/15 03:45:20;;;;;;;4.20;3.47;;;10.80;99.90;;;;;;5051448;28;20199;-82
2024/02/15 03:47:47;;;;;;;3.37;2.80;;;10.80;99.90;;;;;;5053505;28;20314;-83
2024/02/15 03:50:15;;;;;;;3.50;3.07;;;10.80;99.90;;;;;;5053874;28;20206;-82
2024/02/15 03:52:44;;;;;;;3.43;3.00;;;10.80;99.90;;;;;;5049380;28;20199;-82
2024/02/15 03:55:10;;;;;;;4.50;3.07;;;10.80;99.90;;;;;;5050216;28;20231;-83
2024/02/15 03:57:40;;;;;;;5.30;3.50;;;10.90;99.90;;;;;;5053551;28;20214;-82
2024/02/15 04:00:10;;;;;;;5.50;3.77;;;10.90;99.90;;;;;;5053139;28;20269;-82
2024/02/15 04:02:40;;;;;;;4.17;3.67;;;10.90;99.90;;;;;;5047254;28;20708;-82
2024/02/15 04:05:08;;;;;;;4.00;3.60;;;10.90;99.90;;;;;;5050835;28;20195;-82
2024/02/15 04:07:36;;;;;;;4.10;3.67;;;10.90;99.90;;;;;;5049971;28;20203;-82
2024/02/15 04:10:06;;;;;;;4.10;3.70;;;11.00;99.90;;;;;;5049593;28;20290;-82
2024/02/15 04:12:33;;;;;;;4.20;3.10;;;11.00;99.90;;;;;;5052746;28;20711;-80
2024/02/15 04:15:05;;;;;;;4.07;3.30;;;11.00;99.90;;;;;;5056491;28;20205;-81
2024/02/15 04:17:32;;;;;;;3.87;3.40;;;11.00;99.90;;;;;;5049574;28;20199;-82
2024/02/15 04:19:59;;;;;;;4.17;3.57;;;11.00;99.90;;;;;;5053967;28;20200;-82
2024/02/15 04:22:26;;;;;;;5.20;4.10;;;11.00;99.90;;;;;;5051486;28;20225;-83
2024/02/15 04:24:54;;;;;;;3.93;3.53;;;11.00;99.90;;;;;;5053014;28;20620;-82
2024/02/15 04:27:23;;;;;;;4.53;3.63;;;11.00;99.90;;;;;;5053788;28;20203;-84
2024/02/15 04:29:50;;;;;;;3.73;3.43;;;11.40;99.90;;;;;;5050418;28;20271;-82
2024/02/15 04:32:19;;;;;;;4.43;3.43;;;11.20;99.90;;;;;;5049580;28;20196;-81
2024/02/15 04:34:46;;;;;;;3.97;3.57;;;11.10;99.90;;;;;;5048468;28;20277;-81
2024/02/15 04:37:14;;;;;;;7.00;4.70;;;11.10;99.90;;;;;;5050089;28;20204;-82
2024/02/15 04:39:41;;;;;;;4.90;3.50;;;11.10;99.90;;;;;;5054487;28;20220;-82
2024/02/15 04:42:11;;;;;;;4.83;3.90;;;11.10;99.90;;;;;;5057147;28;20207;-82
2024/02/15 04:44:39;;;;;;;6.07;3.47;;;11.10;99.90;;;;;;5055450;28;20207;-82
2024/02/15 04:47:06;;;;;;;7.07;3.80;;;11.20;99.90;;;;;;5057746;28;20199;-82
2024/02/15 04:49:34;;;;;;;5.37;3.97;;;11.10;99.90;;;;;;5055345;28;20219;-81
2024/02/15 04:52:01;;;;;;;4.83;3.77;;;11.10;99.90;;;;;;5047788;28;20267;-81
2024/02/15 04:54:29;;;;;;;4.87;3.90;;;11.20;99.90;;;;;;5044720;28;20427;-81
2024/02/15 04:56:56;;;;;;;4.87;3.83;;;11.10;99.90;;;;;;5047611;28;20294;-81
2024/02/15 04:59:25;;;;;;;5.50;4.07;;;11.10;99.90;;;;;;5048731;28;20226;-81
2024/02/15 05:01:54;;;;;;;6.63;4.60;;;11.20;99.90;;;;;;5044685;28;20196;-81
2024/02/15 05:04:20;;;;;;;5.57;4.50;;;11.10;99.90;;;;;;5046959;28;20195;-80
2024/02/15 05:06:47;;;;;;;5.30;4.17;;;11.10;99.90;;;;;;5046235;28;20333;-81
2024/02/15 05:09:14;;;;;;;8.60;4.87;;;11.00;99.90;;;;;;5045620;28;20732;-82
2024/02/15 05:11:46;;;;;;;7.07;4.37;;;11.00;99.90;;;;;;5049000;28;20294;-81
2024/02/15 05:14:12;;;;;;;7.00;4.47;;;11.10;99.90;;;;;;5048630;28;20200;-80
2024/02/15 05:16:42;;;;;;;6.77;4.80;;;11.10;99.90;;;;;;5048893;28;20298;-81
2024/02/15 05:19:12;;;;;;;5.97;4.43;;;11.10;99.90;;;;;;5049565;28;20229;-82
2024/02/15 05:21:39;;;;;;;5.60;4.97;;;11.10;99.90;;;;;;5045482;28;20437;-83
2024/02/15 05:24:06;;;;;;;6.60;4.57;;;11.00;99.90;;;;;;5048774;28;20279;-82
2024/02/15 05:26:33;;;;;;;12.10;6.87;;;11.10;99.90;;;;;;5050124;28;20576;-82
2024/02/15 05:29:00;;;;;;;6.20;4.47;;;11.00;99.90;;;;;;5052791;28;20243;-81
2024/02/15 05:31:26;;;;;;;7.33;4.97;;;11.00;99.90;;;;;;5049418;28;20210;-82
2024/02/15 05:33:54;;;;;;;10.03;5.13;;;11.00;99.90;;;;;;5051853;28;20199;-82
2024/02/15 05:36:25;;;;;;;6.40;4.93;;;11.20;99.90;;;;;;5052698;28;20289;-81
2024/02/15 05:38:53;;;;;;;7.20;5.00;;;11.10;99.90;;;;;;5054791;28;20222;-82
2024/02/15 05:41:20;;;;;;;7.53;4.83;;;11.10;99.90;;;;;;5050143;28;20204;-82
2024/02/15 05:43:48;;;;;;;7.70;5.23;;;11.10;99.90;;;;;;5052659;28;20219;-82
2024/02/15 05:46:15;;;;;;;6.33;4.77;;;11.10;99.90;;;;;;5050969;28;20287;-82
2024/02/15 05:48:42;;;;;;;7.53;5.03;;;11.10;99.90;;;;;;5050149;28;20603;-82
2024/02/15 05:51:09;;;;;;;8.37;5.43;;;11.10;99.90;;;;;;5049361;28;20299;-82
2024/02/15 05:53:38;;;;;;;6.60;5.10;;;11.10;99.90;;;;;;5051811;28;20198;-82
2024/02/15 05:56:06;;;;;;;7.07;4.90;;;11.10;99.90;;;;;;5049276;28;20222;-82
2024/02/15 05:58:33;;;;;;;6.83;5.13;;;11.10;99.90;;;;;;5055049;28;20223;-82
2024/02/15 06:01:01;;;;;;;7.33;5.90;;;11.10;99.90;;;;;;5053347;28;20266;-82
2024/02/15 06:03:28;;;;;;;10.47;7.17;;;11.20;99.90;;;;;;5052570;28;20215;-82
2024/02/15 06:05:58;;;;;;;7.90;6.07;;;11.00;99.90;;;;;;5050324;28;20223;-82
2024/02/15 06:08:25;;;;;;;7.73;5.60;;;11.00;99.90;;;;;;5049018;28;20270;-81
2024/02/15 06:10:54;;;;;;;8.30;5.50;;;10.90;99.90;;;;;;5050431;28;20285;-82
2024/02/15 06:13:21;;;;;;;8.37;5.17;;;11.20;99.90;;;;;;5053149;28;20205;-82
2024/02/15 06:15:52;;;;;;;7.30;5.30;;;11.30;99.90;;;;;;5054161;28;20241;-82
2024/02/15 06:18:21;;;;;;;7.30;5.37;;;11.30;99.90;;;;;;5054799;28;20219;-80
2024/02/15 06:20:49;;;;;;;8.87;6.00;;;11.00;99.90;;;;;;5048756;28;20213;-82
2024/02/15 06:23:16;;;;;;;7.87;5.80;;;11.00;99.90;;;;;;5046288;28;20218;-82
2024/02/15 06:25:43;;;;;;;8.30;5.40;;;11.10;99.90;;;;;;5045624;28;20208;-82
2024/02/15 06:39:37;;;;;;;8.20;5.90;;;11.10;99.90;;;;;;5044928;28;20227;-82
2024/02/15 06:41:59;;;;;;;7.27;5.50;;;11.10;99.90;;;;;;5051935;28;20252;-80
2024/02/15 06:44:27;;;;;;;8.73;5.97;;;11.20;99.90;;;;;;5048451;28;20564;-81
2024/02/15 06:46:53;;;;;;;9.47;6.17;;;11.20;99.90;;;;;;5049840;28;20200;-81
2024/02/15 06:49:21;;;;;;;7.47;5.60;;;11.30;99.90;;;;;;5045944;28;20234;-80
2024/02/15 06:51:49;;;;;;;9.50;6.10;;;11.30;99.90;;;;;;5043416;28;20302;-82
2024/02/15 06:54:17;;;;;;;10.10;6.67;;;11.30;99.90;;;;;;5043762;28;20223;-81
2024/02/15 06:56:46;;;;;;;14.77;6.73;;;11.40;99.90;;;;;;5044245;28;20203;-81
2024/02/15 06:59:14;;;;;;;9.90;6.50;;;11.30;99.90;;;;;;5043250;28;20617;-81
2024/02/15 07:01:41;;;;;;;7.70;5.90;;;11.30;99.90;;;;;;5044412;28;20219;-81
2024/02/15 07:04:10;;;;;;;11.97;5.73;;;11.30;99.90;;;;;;5044244;28;20684;-81
2024/02/15 07:06:37;;;;;;;8.17;5.57;;;11.20;99.90;;;;;;5047424;28;20242;-81
2024/02/15 07:09:04;;;;;;;14.93;8.60;;;11.20;99.90;;;;;;5048841;28;20235;-81
2024/02/15 07:11:32;;;;;;;12.30;6.77;;;11.20;99.90;;;;;;5050197;28;20311;-81
2024/02/15 07:13:59;;;;;;;22.33;14.23;;;11.20;99.90;;;;;;5052010;28;20203;-81
2024/02/15 07:16:26;;;;;;;11.40;6.70;;;11.20;99.90;;;;;;5048868;28;20195;-83
2024/02/15 07:18:55;;;;;;;10.23;6.90;;;11.20;99.90;;;;;;5052993;28;20637;-81
2024/02/15 07:21:25;;;;;;;8.80;5.47;;;11.20;99.90;;;;;;5046451;28;20206;-81
2024/02/15 07:23:54;;;;;;;8.47;5.87;;;11.20;99.90;;;;;;5051192;28;20621;-81
2024/02/15 07:26:24;;;;;;;9.60;6.07;;;11.20;99.90;;;;;;5045714;28;20207;-80
2024/02/15 07:28:52;;;;;;;12.50;6.20;;;11.20;99.90;;;;;;5049418;28;20636;-81
2024/02/15 07:31:21;;;;;;;9.30;5.67;;;11.20;99.90;;;;;;5041543;28;20202;-80
2024/02/15 07:33:54;;;;;;;9.67;6.30;;;11.20;99.90;;;;;;5045375;28;20276;-81
2024/02/15 07:36:23;;;;;;;11.13;5.33;;;11.20;99.90;;;;;;5048813;28;20211;-81
2024/02/15 07:38:51;;;;;;;10.80;6.07;;;11.20;99.90;;;;;;5045497;28;20291;-81
2024/02/15 07:41:19;;;;;;;8.27;5.53;;;11.20;99.90;;;;;;5047708;28;20211;-80
2024/02/15 07:43:47;;;;;;;10.77;6.80;;;11.20;99.90;;;;;;5049295;28;20229;-80
2024/02/15 07:46:17;;;;;;;7.40;5.17;;;11.40;99.90;;;;;;5049732;28;20203;-81
2024/02/15 07:48:46;;;;;;;7.63;5.17;;;11.30;99.90;;;;;;5047036;28;20842;-81
2024/02/15 07:51:15;;;;;;;6.87;4.53;;;11.40;99.90;;;;;;5047384;28;20230;-82
2024/02/15 07:53:43;;;;;;;8.23;4.20;;;11.50;99.90;;;;;;5042907;28;20206;-82
2024/02/15 07:56:10;;;;;;;5.60;3.83;;;11.50;99.90;;;;;;5044635;28;20199;-80
2024/02/15 07:58:42;;;;;;;6.63;3.30;;;11.60;99.90;;;;;;5048997;28;20236;-81
2024/02/15 08:01:11;;;;;;;5.80;3.40;;;11.70;99.90;;;;;;5047714;28;20203;-82
2024/02/15 08:03:42;;;;;;;9.53;3.70;;;11.70;99.90;;;;;;5046833;28;20219;-81
2024/02/15 08:06:09;;;;;;;4.47;2.80;;;11.70;99.90;;;;;;5045402;28;20291;-82
2024/02/15 08:08:36;;;;;;;6.13;2.67;;;11.90;99.90;;;;;;5047594;28;20234;-81
2024/02/15 08:11:05;;;;;;;3.53;2.40;;;12.00;99.90;;;;;;5048454;28;20199;-81
2024/02/15 08:13:32;;;;;;;4.87;2.47;;;12.10;99.90;;;;;;5052251;28;20262;-81
2024/02/15 08:15:59;;;;;;;4.83;2.70;;;12.30;99.90;;;;;;5058020;28;20279;-81
2024/02/15 08:18:26;;;;;;;4.60;2.10;;;12.40;99.90;;;;;;5056284;28;20231;-81
2024/02/15 08:20:53;;;;;;;3.60;2.30;;;12.30;99.90;;;;;;5047866;28;20305;-81
2024/02/15 08:23:20;;;;;;;5.17;2.60;;;12.30;99.90;;;;;;5054605;28;20233;-81
2024/02/15 08:25:47;;;;;;;5.80;2.50;;;12.30;99.90;;;;;;5056161;28;20692;-82
2024/02/15 08:28:15;;;;;;;2.90;2.50;;;12.30;99.90;;;;;;5051046;28;20241;-81
2024/02/15 08:30:42;;;;;;;4.40;2.37;;;12.30;99.90;;;;;;5049401;28;20271;-81
2024/02/15 08:33:10;;;;;;;4.00;2.57;;;12.40;99.90;;;;;;5045950;28;20619;-82
2024/02/15 08:35:39;;;;;;;4.97;1.90;;;12.40;99.90;;;;;;5048030;28;20208;-81
2024/02/15 08:38:06;;;;;;;3.17;2.20;;;12.50;99.90;;;;;;5051034;28;20234;-82
2024/02/15 08:40:34;;;;;;;3.77;2.50;;;12.70;99.90;;;;;;5057108;28;20233;-82
2024/02/15 08:43:02;;;;;;;5.97;2.30;;;12.80;99.90;;;;;;5051218;28;20585;-81
2024/02/15 08:45:31;;;;;;;3.73;1.70;;;12.90;99.90;;;;;;5058633;28;20199;-81
2024/02/15 08:47:58;;;;;;;2.17;1.97;;;12.90;99.90;;;;;;5058611;28;20227;-81
2024/02/15 08:50:24;;;;;;;2.20;1.97;;;13.00;99.90;;;;;;5053609;28;20223;-82
2024/02/15 08:52:51;;;;;;;2.93;1.73;;;13.00;99.90;;;;;;5060580;28;20217;-82
2024/02/15 08:55:20;;;;;;;4.80;2.00;;;13.00;99.90;;;;;;5060894;28;20191;-81
2024/02/15 08:57:47;;;;;;;6.43;2.20;;;13.10;99.90;;;;;;5058706;28;20314;-82
2024/02/15 09:00:15;;;;;;;4.07;2.13;;;13.10;99.90;;;;;;5052570;28;20287;-82
2024/02/15 09:02:44;;;;;;;3.27;2.23;;;13.10;99.90;;;;;;5049700;28;20726;-80
2024/02/15 09:05:13;;;;;;;2.90;1.60;;;13.20;99.90;;;;;;5045085;28;20577;-82
2024/02/15 09:07:41;;;;;;;3.40;1.90;;;13.30;99.90;;;;;;5054989;28;20210;-81
2024/02/15 09:10:10;;;;;;;3.87;1.80;;;13.20;99.90;;;;;;5050853;28;20208;-82
2024/02/15 09:12:39;;;;;;;1.97;1.80;;;13.20;99.90;;;;;;5052020;28;20295;-81
2024/02/15 09:15:08;;;;;;;2.20;2.00;;;13.20;99.90;;;;;;5051685;28;20250;-82
2024/02/15 09:17:38;;;;;;;2.90;1.98;;;13.20;99.90;;;;;;5055978;28;20199;-80
2024/02/15 09:20:08;;;;;;;2.73;1.43;;;13.20;99.90;;;;;;5053697;28;20290;-81
2024/02/15 09:22:36;;;;;;;4.43;2.17;;;13.20;99.90;;;;;;5053779;28;20215;-81
2024/02/15 09:25:03;;;;;;;3.40;1.90;;;13.30;99.90;;;;;;5050402;28;20221;-81
2024/02/15 09:35:11;;;;;;;4.50;2.00;;;13.30;99.90;;;;;;5014411;28;20220;-81
2024/02/15 09:37:39;;;;;;;1.95;1.80;;;13.40;99.90;;;;;;5014084;28;20204;-82
2024/02/15 09:40:10;;;;;;;4.90;1.70;;;13.30;99.90;;;;;;5006835;28;20200;-81
2024/02/15 09:42:38;;;;;;;3.78;2.20;;;13.40;99.90;;;;;;5009612;28;20638;-81
2024/02/15 09:45:06;;;;;;;2.20;2.00;;;13.40;99.90;;;;;;5011468;28;20225;-82
2024/02/15 09:47:40;;;;;;;1.70;1.60;;;13.50;99.90;;;;;;5005698;28;20212;-82
2024/02/15 09:50:08;;;;;;;4.40;2.33;;;13.40;99.90;;;;;;5008940;28;20218;-82
2024/02/15 09:52:36;;;;;;;2.20;1.93;;;13.40;99.90;;;;;;5015035;28;20212;-80
2024/02/15 09:55:04;;;;;;;3.67;1.83;;;13.40;99.90;;;;;;5009231;28;20633;-81
2024/02/15 09:57:33;;;;;;;2.10;1.60;;;13.40;29.80;;;;;;5012974;28;20230;-81
2024/02/15 10:00:00;;;;;;;3.70;1.80;;;13.40;1.00;;;;;;5013156;28;20223;-80
2024/02/15 10:02:27;;;;;;;6.00;1.93;;;13.40;1.00;;;;;;5014690;28;20212;-81
2024/02/15 10:04:57;;;;;;;3.23;2.13;;;13.40;1.00;;;;;;5007952;28;20791;-81
2024/02/15 10:07:24;;;;;;;2.90;2.10;;;13.50;1.00;;;;;;5006295;28;20243;-80
2024/02/15 10:09:52;;;;;;;4.27;2.00;;;13.40;99.90;;;;;;5012962;28;20271;-82
2024/02/15 10:12:20;;;;;;;2.33;1.93;;;13.40;1.00;;;;;;5012258;28;20554;-81
2024/02/15 10:14:50;;;;;;;5.47;2.65;;;13.40;1.00;;;;;;5017093;28;20301;-82
2024/02/15 10:17:20;;;;;;;3.53;2.20;;;13.40;99.90;;;;;;5013663;28;20816;-82
2024/02/15 10:20:03;;;;;;;3.67;2.40;;;13.50;1.00;;;;;;5018487;28;20694;-81
2024/02/15 10:22:30;;;;;;;4.13;2.20;;;13.30;1.00;;;;;;5008196;28;20205;-80
2024/02/15 10:25:12;;;;;;;3.43;2.40;;;13.30;1.00;;;;;;5014302;28;20240;-80
2024/02/15 10:27:39;;;;;;;4.60;2.50;;;13.30;1.00;;;;;;5011552;28;20228;-80
2024/02/15 10:30:16;;;;;;;4.30;2.22;;;13.30;99.90;;;;;;5011617;28;20232;-84
2024/02/15 10:32:44;;;;;;;5.10;2.77;;;13.30;99.90;;;;;;5016768;28;20688;-82
2024/02/15 10:35:15;;;;;;;2.85;2.15;;;13.30;1.00;;;;;;5007202;28;20200;-81
2024/02/15 10:37:43;;;;;;;4.05;2.22;;;13.30;1.00;;;;;;5012230;28;20597;-82
2024/02/15 10:40:13;;;;;;;4.20;2.42;;;13.30;1.00;;;;;;5016936;28;20234;-83
2024/02/15 10:42:42;;;;;;;5.18;2.03;;;13.40;1.00;;;;;;5012308;28;20251;-82
2024/02/15 10:45:10;;;;;;;3.60;2.20;;;13.40;1.00;;;;;;5009061;28;20233;-83
2024/02/15 10:47:39;;;;;;;3.22;2.30;;;13.40;1.00;;;;;;5005946;28;20300;-83
2024/02/15 10:50:07;;;;;;;3.92;2.20;;;13.30;1.00;;;;;;5009960;28;20216;-83
2024/02/15 10:52:42;;;;;;;4.60;2.50;;;13.30;1.00;;;;;;5007334;28;20298;-83
2024/02/15 10:55:13;;;;;;;6.20;2.50;;;13.20;1.00;;;;;;5012063;28;20208;-82
2024/02/15 10:57:48;;;;;;;5.03;2.53;;;13.10;99.90;;;;;;5013451;28;20232;-84
2024/02/15 11:00:21;;;;;;;3.37;2.37;;;13.10;99.90;;;;;;5011129;28;20204;-84
2024/02/15 11:03:02;;;;;;;2.92;2.33;;;13.00;99.90;;;;;;5015439;28;20217;-83
2024/02/15 11:05:35;;;;;;;7.47;2.50;;;13.00;99.90;;;;;;5012753;28;20231;-83
2024/02/15 11:08:04;;;;;;;3.17;2.70;;;13.00;99.90;;;;;;5016381;28;20761;-84
2024/02/15 11:10:33;;;;;;;5.30;2.07;;;13.00;99.90;;;;;;5015558;28;20211;-82
2024/02/15 11:13:00;;;;;;;3.78;2.42;;;13.10;99.90;;;;;;5009305;28;20207;-84
2024/02/15 11:15:49;;;;;;;3.70;2.50;;;13.10;99.90;;;;;;5013518;28;20205;-84
2024/02/15 11:18:44;;;;;;;3.30;2.63;;;13.20;99.90;;;;;;5016143;28;20252;-84
2024/02/15 11:21:11;;;;;;;2.77;2.30;;;13.30;99.90;;;;;;5015126;28;20207;-84
2024/02/15 11:23:38;;;;;;;3.47;2.23;;;13.30;99.90;;;;;;5013286;28;20293;-84
2024/02/15 11:26:09;;;;;;;4.28;2.22;;;13.40;99.90;;;;;;5013116;28;20224;-81
2024/02/15 11:28:50;;;;;;;3.80;2.40;;;13.30;99.90;;;;;;5019372;28;20236;-84
2024/02/15 11:31:46;;;;;;;4.13;2.37;;;13.40;99.90;;;;;;5007385;28;20299;-82
2024/02/15 11:34:45;;;;;;;3.73;2.13;;;13.30;99.90;;;;;;4987754;28;20301;-83
2024/02/15 11:37:53;;;;;;;3.15;2.55;;;13.40;99.90;;;;;;5002618;28;20208;-84
2024/02/15 11:40:22;;;;;;;3.23;2.00;;;13.30;99.90;;;;;;5007733;28;20211;-83
2024/02/15 11:42:52;;;;;;;4.57;2.33;;;13.40;99.90;;;;;;5004325;28;20200;-82
2024/02/15 11:45:19;;;;;;;2.03;1.67;;;13.40;99.90;;;;;;5006046;28;20239;-83
2024/02/15 11:47:50;;;;;;;2.60;2.10;;;13.50;99.90;;;;;;5015366;28;20224;-83
2024/02/15 11:50:18;;;;;;;2.83;2.03;;;13.50;99.90;;;;;;5014245;28;20211;-84
2024/02/15 11:52:45;;;;;;;4.00;1.98;;;13.50;99.90;;;;;;5008649;28;20220;-84
2024/02/15 11:55:13;;;;;;;4.20;1.83;;;13.60;99.90;;;;;;5013870;28;20205;-84
2024/02/15 11:57:50;;;;;;;5.50;1.70;;;13.60;99.90;;;;;;5007695;28;20291;-83
2024/02/15 12:19:49;;;;;;;2.70;1.70;;;13.70;99.90;;;;;;5018888;28;20232;-84
2024/02/15 12:22:16;;;;;;;2.72;1.48;;;13.70;99.90;;;;;;5014587;28;20655;-83
2024/02/15 12:24:44;;;;;;;3.15;1.73;;;13.70;99.90;;;;;;5010012;28;20271;-83
2024/02/15 12:27:11;;;;;;;2.90;1.70;;;13.60;99.90;;;;;;5011171;28;20238;-83
2024/02/15 12:29:38;;;;;;;3.88;2.25;;;13.60;99.90;;;;;;5020013;28;20244;-83
2024/02/15 12:32:06;;;;;;;4.18;1.60;;;13.60;99.90;;;;;;5011190;28;20212;-83
2024/02/15 12:34:33;;;;;;;2.42;1.95;;;13.60;99.90;;;;;;5017835;28;20213;-83
2024/02/15 12:37:08;;;;;;;3.10;1.83;;;13.60;99.90;;;;;;5012454;28;20208;-84
2024/02/15 12:39:36;;;;;;;2.37;1.77;;;13.60;99.90;;;;;;5014936;28;20230;-84
2024/02/15 12:42:07;;;;;;;3.92;1.83;;;13.70;99.90;;;;;;5013096;28;20200;-84
2024/02/15 12:44:34;;;;;;;3.05;1.85;;;13.60;99.90;;;;;;5012199;28;20679;-83
2024/02/15 12:47:03;;;;;;;2.55;1.80;;;13.70;99.90;;;;;;5013692;28;20221;-85
2024/02/15 12:49:32;;;;;;;3.27;2.07;;;13.60;99.90;;;;;;5021625;28;20220;-84
2024/02/15 12:52:36;;;;;;;2.17;1.47;;;13.60;99.90;;;;;;5011048;28;20962;-85
2024/02/15 12:55:16;;;;;;;2.72;1.60;;;13.60;99.90;;;;;;5009799;28;20211;-85
2024/02/15 12:57:45;;;;;;;3.77;2.00;;;13.60;99.90;;;;;;5013182;28;20204;-84
2024/02/15 13:00:17;;;;;;;2.57;1.80;;;13.60;99.90;;;;;;5012836;28;20235;-84
2024/02/15 13:02:45;;;;;;;2.97;1.90;;;13.60;99.90;;;;;;5019386;28;20240;-82
2024/02/15 13:05:13;;;;;;;6.43;2.23;;;13.60;99.90;;;;;;5012325;28;20220;-85
2024/02/15 13:07:40;;;;;;;3.28;1.95;;;13.50;99.90;;;;;;5015430;28;20228;-83
2024/02/15 13:10:08;;;;;;;1.92;1.83;;;13.50;99.90;;;;;;5020189;28;20215;-83
2024/02/15 13:12:38;;;;;;;5.13;1.95;;;13.50;99.90;;;;;;5011015;28;20256;-82
2024/02/15 13:15:11;;;;;;;3.50;1.73;;;13.70;99.90;;;;;;5016555;28;20205;-82
2024/02/15 13:17:39;;;;;;;3.27;1.80;;;13.60;99.90;;;;;;5012580;28;20239;-82
2024/02/15 13:20:11;;;;;;;1.80;1.70;;;13.60;99.90;;;;;;5025964;28;20569;-83
2024/02/15 13:22:40;;;;;;;4.27;1.90;;;13.70;99.90;;;;;;5010466;28;20213;-81
2024/02/15 13:25:08;;;;;;;3.17;2.10;;;13.70;99.90;;;;;;5013328;28;20306;-84
2024/02/15 13:27:36;;;;;;;3.05;1.83;;;13.70;99.90;;;;;;5021004;28;20212;-82
2024/02/15 13:30:08;;;;;;;3.92;1.95;;;13.80;99.90;;;;;;5015064;28;20207;-84
2024/02/15 13:32:38;;;;;;;1.80;1.58;;;13.80;99.90;;;;;;5018207;28;20295;-83
2024/02/15 13:35:18;;;;;;;3.17;1.55;;;13.80;99.90;;;;;;5018061;28;20211;-83
2024/02/15 13:37:49;;;;;;;5.37;1.87;;;13.80;99.90;;;;;;5019365;28;20232;-84
2024/02/15 13:40:16;;;;;;;3.17;1.80;;;14.00;99.90;;;;;;5014969;28;20250;-82
2024/02/15 13:42:49;;;;;;;2.75;1.73;;;14.20;99.90;;;;;;5012588;28;20231;-84
2024/02/15 13:45:16;;;;;;;3.63;1.85;;;14.20;1.00;;;;;;5019684;28;20228;-84
2024/02/15 13:47:47;;;;;;;3.00;1.67;;;14.20;1.00;;;;;;5022805;28;20304;-84
2024/02/15 13:50:15;;;;;;;3.08;2.00;;;14.10;1.00;;;;;;5024183;28;20208;-84
2024/02/15 13:52:43;;;;;;;3.38;1.60;;;14.20;1.00;;;;;;5021510;28;20215;-82
2024/02/15 13:55:12;;;;;;;4.78;2.00;;;14.20;99.90;;;;;;5014154;28;20575;-82